createdAt,value
2023-05-25T00:01:49.547Z,98724.22
2023-05-25T00:04:19.703Z,98728.53
2023-05-25T00:06:47.698Z,98725.53
2023-05-25T00:09:15.535Z,98720.13
2023-05-25T00:11:43.010Z,98713.56
2023-05-25T00:14:10.582Z,98722.31
2023-05-25T00:16:38.171Z,98722.00
2023-05-25T00:19:11.247Z,98717.47
2023-05-25T00:21:38.785Z,98719.78
2023-05-25T00:24:07.650Z,98713.84
2023-05-25T00:26:36.275Z,98701.31
2023-05-25T00:29:07.381Z,98702.22
2023-05-25T00:31:36.963Z,98697.88
2023-05-25T00:34:04.613Z,98701.66
2023-05-25T00:36:32.089Z,98702.25
2023-05-25T00:38:59.633Z,98700.72
2023-05-25T00:41:28.427Z,98699.19
2023-05-25T00:43:56.027Z,98698.00
2023-05-25T00:46:24.212Z,98705.63
2023-05-25T00:48:56.406Z,98695.78
2023-05-25T00:51:25.604Z,98691.13
2023-05-25T00:53:53.452Z,98691.97
2023-05-25T00:56:30.938Z,98690.91
2023-05-25T00:59:07.023Z,98685.16
2023-05-25T01:01:40.487Z,98674.25
2023-05-25T01:04:11.198Z,98681.06
2023-05-25T01:06:43.429Z,98683.44
2023-05-25T01:09:16.195Z,98671.41
2023-05-25T01:11:51.545Z,98674.97
2023-05-25T01:14:25.022Z,98675.56
2023-05-25T01:16:52.828Z,98677.81
2023-05-25T01:19:20.340Z,98673.75
2023-05-25T01:22:11.030Z,98680.06
2023-05-25T01:24:51.028Z,98671.19
2023-05-25T04:23:19.735Z,98699.13
2023-05-25T04:25:47.528Z,98706.84
2023-05-25T04:28:15.040Z,98706.06
2023-05-25T04:30:42.509Z,98712.63
2023-05-25T04:33:13.764Z,98717.28
2023-05-25T04:35:41.235Z,98724.66
2023-05-25T04:38:08.694Z,98716.69
2023-05-25T04:40:36.183Z,98725.25
2023-05-25T04:43:03.704Z,98724.19
2023-05-25T04:45:33.399Z,98727.09
2023-05-25T04:48:01.998Z,98726.03
2023-05-25T04:50:29.606Z,98725.72
2023-05-25T04:52:57.516Z,98736.69
2023-05-25T04:55:25.011Z,98727.97
2023-05-25T04:57:53.458Z,98736.25
2023-05-25T05:00:22.091Z,98737.50
2023-05-25T05:02:50.169Z,98735.75
2023-05-25T05:05:18.464Z,98743.09
2023-05-25T05:07:46.117Z,98730.38
2023-05-25T05:10:13.815Z,98735.00
2023-05-25T05:12:41.277Z,98740.59
2023-05-25T05:15:09.238Z,98736.38
2023-05-25T05:17:37.045Z,98735.69
2023-05-25T05:20:05.453Z,98730.47
2023-05-25T05:22:33.950Z,98724.00
2023-05-25T05:25:02.220Z,98743.13
2023-05-25T05:27:29.775Z,98738.50
2023-05-25T05:29:57.280Z,98742.09
2023-05-25T05:32:24.705Z,98752.28
2023-05-25T05:34:52.239Z,98738.94
2023-05-25T05:37:19.750Z,98749.75
2023-05-25T05:39:47.362Z,98742.53
2023-05-25T05:42:14.869Z,98739.59
2023-05-25T05:44:42.387Z,98747.03
2023-05-25T05:47:09.993Z,98748.78
2023-05-25T05:49:39.408Z,98744.34
2023-05-25T05:52:11.662Z,98759.94
2023-05-25T05:54:39.116Z,98747.34
2023-05-25T05:57:06.886Z,98746.84
2023-05-25T05:59:35.600Z,98764.06
2023-05-25T06:02:03.343Z,98763.34
2023-05-25T06:04:30.844Z,98758.63
2023-05-25T06:06:59.131Z,98763.91
2023-05-25T06:09:26.835Z,98768.56
2023-05-25T06:11:54.372Z,98768.94
2023-05-25T06:14:21.851Z,98769.81
2023-05-25T06:16:49.362Z,98756.19
2023-05-25T06:19:16.895Z,98773.47
2023-05-25T06:21:44.615Z,98764.50
2023-05-25T06:24:12.128Z,98764.88
2023-05-25T06:26:39.585Z,98768.22
2023-05-25T06:29:07.172Z,98765.22
2023-05-25T06:31:34.662Z,98772.66
2023-05-25T06:34:02.157Z,98767.09
2023-05-25T06:36:29.683Z,98776.34
2023-05-25T06:38:57.140Z,98779.97
2023-05-25T06:41:24.573Z,98782.25
2023-05-25T06:43:52.078Z,98771.19
2023-05-25T06:46:19.519Z,98779.31
2023-05-25T06:48:47.516Z,98770.66
2023-05-25T06:51:15.044Z,98777.75
2023-05-25T06:53:42.453Z,98776.09
2023-05-25T06:56:09.935Z,98784.66
2023-05-25T06:58:37.502Z,98774.94
2023-05-25T07:01:05.869Z,98780.84
2023-05-25T07:03:33.583Z,98792.81
2023-05-25T07:06:01.120Z,98785.34
2023-05-25T07:08:28.687Z,98783.41
2023-05-25T07:10:56.216Z,98780.25
2023-05-25T07:13:23.795Z,98782.47
2023-05-25T07:15:52.856Z,98783.13
2023-05-25T07:18:20.566Z,98791.03
2023-05-25T07:20:48.388Z,98785.25
2023-05-25T07:23:15.984Z,98793.78
2023-05-25T07:25:43.581Z,98793.16
2023-05-25T07:28:11.190Z,98780.78
2023-05-25T07:30:38.723Z,98782.13
2023-05-25T07:33:06.675Z,98784.91
2023-05-25T07:35:35.570Z,98785.53
2023-05-25T07:38:04.732Z,98789.53
2023-05-25T07:40:32.385Z,98799.84
2023-05-25T07:42:59.882Z,98799.94
2023-05-25T07:45:27.443Z,98807.28
2023-05-25T07:47:55.070Z,98804.94
2023-05-25T07:50:23.856Z,98805.69
2023-05-25T07:52:53.558Z,98800.44
2023-05-25T07:55:21.519Z,98811.16
2023-05-25T07:57:49.049Z,98809.00
2023-05-25T08:00:18.152Z,98794.41
2023-05-25T08:02:46.052Z,98809.75
2023-05-25T08:05:13.888Z,98810.66
2023-05-25T08:07:42.905Z,98813.91
2023-05-25T08:10:11.139Z,98817.56
2023-05-25T08:12:48.816Z,98816.66
2023-05-25T08:15:17.719Z,98823.22
2023-05-25T08:17:45.343Z,98816.50
2023-05-25T08:20:14.379Z,98816.53
2023-05-25T08:22:42.798Z,98827.38
2023-05-25T08:25:10.452Z,98822.69
2023-05-25T08:27:38.196Z,98827.72
2023-05-25T08:30:07.087Z,98833.28
2023-05-25T08:32:34.766Z,98835.69
2023-05-25T08:35:03.658Z,98842.59
2023-05-25T08:37:33.518Z,98843.38
2023-05-25T08:40:02.735Z,98842.22
2023-05-25T08:42:30.528Z,98854.97
2023-05-25T08:44:59.018Z,98847.06
2023-05-25T08:47:34.030Z,98844.66
2023-05-25T08:50:04.715Z,98847.03
2023-05-25T08:52:34.396Z,98852.63
2023-05-25T08:55:08.794Z,98847.84
2023-05-25T08:58:16.942Z,98844.69
2023-05-25T09:00:58.636Z,98847.06
2023-05-25T09:03:26.879Z,98849.47
2023-05-25T09:05:57.232Z,98850.66
2023-05-25T09:08:25.667Z,98849.44
2023-05-25T09:10:53.930Z,98840.28
2023-05-25T09:13:22.827Z,98856.59
2023-05-25T09:15:53.037Z,98847.44
2023-05-25T09:18:21.072Z,98853.03
2023-05-25T09:20:49.053Z,98846.31
2023-05-25T09:23:17.464Z,98857.41
2023-05-25T09:25:46.492Z,98847.09
2023-05-25T09:28:26.460Z,98862.22
2023-05-25T09:30:56.257Z,98858.16
2023-05-25T09:33:23.943Z,98869.38
2023-05-25T09:35:52.147Z,98868.53
2023-05-25T09:38:20.466Z,98862.91
2023-05-25T09:40:48.445Z,98868.09
2023-05-25T09:43:25.337Z,98862.81
2023-05-25T09:45:56.615Z,98871.25
2023-05-25T09:48:24.569Z,98872.44
2023-05-25T09:50:52.364Z,98877.50
2023-05-25T09:53:21.276Z,98877.25
2023-05-25T09:55:54.318Z,98882.38
2023-05-25T09:58:26.681Z,98888.56
2023-05-25T10:00:57.442Z,98880.88
2023-05-25T10:03:25.033Z,98881.91
2023-05-25T10:05:55.274Z,98894.94
2023-05-25T10:08:27.996Z,98884.47
2023-05-25T10:10:56.538Z,98888.91
2023-05-25T10:13:27.051Z,98894.94
2023-05-25T10:15:55.313Z,98902.44
2023-05-25T10:18:32.836Z,98899.16
2023-05-25T10:21:05.134Z,98894.88
2023-05-25T10:23:48.136Z,98895.09
2023-05-25T10:26:26.357Z,98900.84
2023-05-25T10:29:01.585Z,98890.72
2023-05-25T10:31:30.169Z,98899.34
2023-05-25T10:33:58.314Z,98905.09
2023-05-25T10:36:27.367Z,98906.78
2023-05-25T10:38:55.393Z,98899.03
2023-05-25T10:41:23.200Z,98906.81
2023-05-25T10:43:51.539Z,98893.81
2023-05-25T10:46:19.387Z,98901.63
2023-05-25T10:48:50.288Z,98907.31
2023-05-25T10:51:21.059Z,98916.50
2023-05-25T10:54:02.073Z,98897.31
2023-05-25T10:56:29.649Z,98903.63
2023-05-25T10:58:57.227Z,98910.69
2023-05-25T11:01:25.763Z,98909.69
2023-05-25T11:04:11.485Z,98902.22
2023-05-25T11:06:41.942Z,98907.75
2023-05-25T11:09:33.964Z,98911.50
2023-05-25T11:12:04.107Z,98913.31
2023-05-25T11:14:42.388Z,98910.53
2023-05-25T11:17:19.822Z,98909.31
2023-05-25T11:19:54.912Z,98906.91
2023-05-25T11:22:37.535Z,98914.72
2023-05-25T11:25:42.271Z,98908.94
2023-05-25T11:28:12.112Z,98909.03
2023-05-25T11:30:42.764Z,98912.22
2023-05-25T11:33:10.343Z,98906.53
2023-05-25T11:35:37.949Z,98899.19
2023-05-25T11:38:08.701Z,98910.09
2023-05-25T11:40:39.268Z,98919.56
2023-05-25T11:43:09.758Z,98910.63
2023-05-25T11:45:38.476Z,98919.84
2023-05-25T11:48:06.509Z,98921.47
2023-05-25T11:50:34.187Z,98913.13
2023-05-25T11:53:07.382Z,98911.50
2023-05-25T11:55:34.957Z,98919.75
2023-05-25T11:58:02.451Z,98910.31
2023-05-25T12:00:30.001Z,98904.16
2023-05-25T12:02:58.223Z,98909.25
2023-05-25T12:05:25.890Z,98915.53
2023-05-25T12:07:53.410Z,98905.75
2023-05-25T12:10:20.916Z,98907.41
2023-05-25T12:12:52.449Z,98915.50
2023-05-25T12:15:25.848Z,98916.41
2023-05-25T12:17:54.491Z,98907.78
2023-05-25T12:20:22.654Z,98907.16
2023-05-25T12:22:50.377Z,98906.53
2023-05-25T12:25:22.567Z,98903.94
2023-05-25T12:28:09.523Z,98902.31
2023-05-25T12:30:37.000Z,98917.69
2023-05-25T12:33:05.003Z,98917.56
2023-05-25T12:35:47.983Z,98917.56
2023-05-25T12:38:20.327Z,98920.91
2023-05-25T12:40:48.178Z,98904.03
2023-05-25T12:43:17.723Z,98906.72
2023-05-25T12:45:45.624Z,98902.09
2023-05-25T12:48:13.150Z,98916.00
2023-05-25T12:51:00.884Z,98908.34
2023-05-25T12:53:29.231Z,98911.56
2023-05-25T12:56:04.752Z,98906.84
2023-05-25T12:58:32.322Z,98908.09
2023-05-25T13:01:00.070Z,98912.41
2023-05-25T13:03:31.736Z,98901.41
2023-05-25T13:06:03.809Z,98907.09
2023-05-25T13:08:34.005Z,98908.78
2023-05-25T13:11:03.762Z,98899.66
2023-05-25T13:13:31.732Z,98910.50
2023-05-25T13:15:59.688Z,98904.69
2023-05-25T13:18:27.259Z,98899.88
2023-05-25T13:20:56.914Z,98906.28
2023-05-25T13:23:24.956Z,98906.22
2023-05-25T13:25:52.444Z,98904.88
2023-05-25T13:28:19.926Z,98899.94
2023-05-25T13:30:47.477Z,98902.28
2023-05-25T13:33:15.333Z,98900.94
2023-05-25T13:35:58.602Z,98894.53
2023-05-25T13:38:29.902Z,98895.56
2023-05-25T13:40:57.795Z,98889.41
2023-05-25T13:43:25.501Z,98892.28
2023-05-25T13:45:53.148Z,98889.31
2023-05-25T13:48:20.678Z,98898.44
2023-05-25T13:50:48.198Z,98890.34
2023-05-25T13:53:15.634Z,98887.84
2023-05-25T13:55:43.649Z,98887.69
2023-05-25T13:58:11.250Z,98894.25
2023-05-25T14:00:38.722Z,98891.41
2023-05-25T14:03:07.029Z,98892.50
2023-05-25T14:05:34.959Z,98896.44
2023-05-25T14:08:05.119Z,98896.19
2023-05-25T14:10:34.975Z,98894.19
2023-05-25T14:13:02.505Z,98896.78
2023-05-25T14:15:29.960Z,98905.81
2023-05-25T14:17:57.675Z,98897.88
2023-05-25T14:20:26.474Z,98896.72
2023-05-25T14:22:54.525Z,98886.31
2023-05-25T14:25:22.081Z,98889.69
2023-05-25T14:27:49.585Z,98887.84
2023-05-25T14:30:17.089Z,98882.78
2023-05-25T14:32:44.773Z,98871.59
2023-05-25T14:35:12.220Z,98880.38
2023-05-25T14:37:39.655Z,98877.00
2023-05-25T14:40:08.449Z,98876.09
2023-05-25T14:42:35.973Z,98872.88
2023-05-25T14:45:03.638Z,98865.50
2023-05-25T14:47:31.165Z,98871.50
2023-05-25T14:49:58.657Z,98865.22
2023-05-25T14:52:26.195Z,98862.75
2023-05-25T14:54:53.780Z,98871.13
2023-05-25T14:57:21.226Z,98870.59
2023-05-25T14:59:48.719Z,98869.69
2023-05-25T15:02:16.229Z,98875.22
2023-05-25T15:04:43.815Z,98870.66
2023-05-25T15:07:12.905Z,98870.09
2023-05-25T15:09:40.956Z,98878.72
2023-05-25T15:12:08.508Z,98880.47
2023-05-25T15:14:39.990Z,98877.56
2023-05-25T15:17:08.158Z,98879.13
2023-05-25T15:19:35.929Z,98889.78
2023-05-25T15:22:04.004Z,98874.72
2023-05-25T15:24:31.486Z,98886.56
2023-05-25T15:26:58.989Z,98891.34
2023-05-25T15:29:26.511Z,98888.22
2023-05-25T15:31:54.079Z,98878.84
2023-05-25T15:34:21.735Z,98886.13
2023-05-25T15:36:49.272Z,98892.97
2023-05-25T15:39:16.762Z,98885.50
2023-05-25T15:41:44.385Z,98883.56
2023-05-25T15:44:12.934Z,98878.50
2023-05-25T15:46:41.283Z,98876.03
2023-05-25T15:49:11.694Z,98876.13
2023-05-25T15:51:43.967Z,98881.19
2023-05-25T15:54:14.701Z,98884.34
2023-05-25T15:56:42.576Z,98881.47
2023-05-25T15:59:12.437Z,98879.44
2023-05-25T16:01:40.261Z,98887.09
2023-05-25T16:04:08.216Z,98880.97
2023-05-25T16:06:36.968Z,98871.38
2023-05-25T16:09:04.710Z,98874.84
2023-05-25T16:11:34.160Z,98877.00
2023-05-25T16:14:01.722Z,98868.38
2023-05-25T16:16:29.714Z,98868.47
2023-05-25T16:18:57.294Z,98874.03
2023-05-25T16:21:24.827Z,98873.44
2023-05-25T16:23:52.336Z,98867.00
2023-05-25T16:26:19.812Z,98879.19
2023-05-25T16:28:47.275Z,98872.56
2023-05-25T16:31:15.829Z,98881.38
2023-05-25T16:33:43.854Z,98878.38
2023-05-25T16:36:14.292Z,98873.69
2023-05-25T16:38:41.864Z,98873.75
2023-05-25T16:41:09.355Z,98871.66
2023-05-25T16:43:36.958Z,98874.81
2023-05-25T16:46:04.842Z,98870.75
2023-05-25T16:48:32.346Z,98875.94
2023-05-25T16:50:59.865Z,98873.53
2023-05-25T16:53:27.345Z,98876.63
2023-05-25T16:55:54.767Z,98873.63
2023-05-25T16:58:24.211Z,98868.34
2023-05-25T17:00:51.992Z,98878.31
2023-05-25T17:03:19.534Z,98868.13
2023-05-25T17:05:47.055Z,98869.00
2023-05-25T17:08:14.605Z,98869.53
2023-05-25T17:10:48.577Z,98868.91
2023-05-25T17:13:16.609Z,98881.25
2023-05-25T17:15:44.284Z,98886.47
2023-05-25T17:18:11.995Z,98883.47
2023-05-25T17:20:39.656Z,98887.66
2023-05-25T17:23:07.914Z,98878.56
2023-05-25T17:25:35.425Z,98888.03
2023-05-25T17:28:02.839Z,98889.88
2023-05-25T17:30:30.855Z,98887.34
2023-05-25T17:33:01.748Z,98886.28
2023-05-25T17:35:29.586Z,98893.50
2023-05-25T17:37:57.322Z,98889.28
2023-05-25T17:40:24.763Z,98883.91
2023-05-25T17:42:52.182Z,98884.16
2023-05-25T17:45:19.842Z,98879.53
2023-05-25T17:47:47.400Z,98890.09
2023-05-25T17:50:14.874Z,98888.66
2023-05-25T17:52:42.649Z,98888.72
2023-05-25T17:55:10.738Z,98888.72
2023-05-25T17:57:38.165Z,98895.75
2023-05-25T18:00:07.218Z,98887.69
2023-05-25T18:02:34.932Z,98888.53
2023-05-25T18:05:02.647Z,98897.63
2023-05-25T18:07:30.073Z,98895.00
2023-05-25T18:09:57.511Z,98899.81
2023-05-25T18:12:25.039Z,98886.84
2023-05-25T18:14:52.487Z,98886.91
2023-05-25T18:17:20.015Z,98888.78
2023-05-25T18:19:47.511Z,98887.94
2023-05-25T18:22:14.961Z,98887.28
2023-05-25T18:24:42.396Z,98893.19
2023-05-25T18:27:09.839Z,98894.84
2023-05-25T18:29:39.756Z,98901.00
2023-05-25T18:32:07.423Z,98895.56
2023-05-25T18:34:34.889Z,98899.44
2023-05-25T18:37:02.358Z,98900.53
2023-05-25T18:39:31.075Z,98904.38
2023-05-25T18:41:58.525Z,98909.00
2023-05-25T18:44:26.939Z,98905.22
2023-05-25T18:46:56.676Z,98903.91
2023-05-25T18:49:24.576Z,98905.41
2023-05-25T18:51:52.165Z,98904.38
2023-05-25T18:54:19.635Z,98919.59
2023-05-25T18:56:47.336Z,98911.25
2023-05-25T18:59:14.900Z,98918.69
2023-05-25T19:01:42.705Z,98909.59
2023-05-25T19:04:10.347Z,98918.63
2023-05-25T19:06:38.080Z,98915.88
2023-05-25T19:09:05.602Z,98919.91
2023-05-25T19:11:33.049Z,98924.09
2023-05-25T19:14:00.623Z,98919.78
2023-05-25T19:16:28.101Z,98925.59
2023-05-25T19:18:55.608Z,98920.91
2023-05-25T19:21:23.141Z,98926.16
2023-05-25T19:23:51.814Z,98926.94
2023-05-25T19:26:19.654Z,98932.31
2023-05-25T19:28:47.162Z,98940.31
2023-05-25T19:31:14.648Z,98938.63
2023-05-25T19:33:42.084Z,98939.75
2023-05-25T19:36:09.570Z,98949.78
2023-05-25T19:38:41.743Z,98960.66
2023-05-25T19:41:09.978Z,98962.53
2023-05-25T19:43:37.963Z,98962.59
2023-05-25T19:46:05.601Z,98967.00
2023-05-25T19:48:33.763Z,98972.84
2023-05-25T19:51:01.295Z,98973.81
2023-05-25T19:53:30.592Z,98972.34
2023-05-25T19:55:58.597Z,98973.38
2023-05-25T19:58:26.040Z,98972.78
2023-05-25T20:00:53.949Z,98987.66
2023-05-25T20:03:21.572Z,98978.81
2023-05-25T20:05:49.148Z,98985.28
2023-05-25T20:08:16.608Z,98984.22
2023-05-25T20:10:45.257Z,98974.25
2023-05-25T20:13:12.861Z,98983.47
2023-05-25T20:15:40.407Z,98981.00
2023-05-25T20:18:07.920Z,98983.16
2023-05-25T20:20:35.862Z,98993.44
2023-05-25T20:23:03.930Z,98987.19
2023-05-25T20:25:31.491Z,98990.22
2023-05-25T20:27:58.928Z,98995.50
2023-05-25T20:30:27.791Z,98995.47
2023-05-25T20:32:55.286Z,98983.31
2023-05-25T20:35:22.840Z,98990.59
2023-05-25T20:37:50.277Z,98988.31
2023-05-25T20:40:17.880Z,98993.91
2023-05-25T20:42:45.398Z,98992.59
2023-05-25T20:45:12.914Z,98991.44
2023-05-25T20:47:41.071Z,98990.16
2023-05-25T20:50:09.041Z,98984.28
2023-05-25T20:52:39.499Z,98987.41
2023-05-25T20:55:07.450Z,98980.94
2023-05-25T20:57:34.943Z,98991.97
2023-05-25T21:00:03.596Z,98994.09
2023-05-25T21:02:31.278Z,98999.81
2023-05-25T21:04:58.806Z,98996.41
2023-05-25T21:07:26.468Z,98985.06
2023-05-25T21:09:56.584Z,98991.88
2023-05-25T21:12:24.188Z,98992.31
2023-05-25T21:14:51.627Z,99003.16
2023-05-25T21:17:20.085Z,99004.47
2023-05-25T21:19:49.220Z,98989.69
2023-05-25T21:22:16.900Z,98994.78
2023-05-25T21:24:44.563Z,98988.19
2023-05-25T21:27:12.800Z,98988.09
2023-05-25T21:29:40.665Z,98994.50
2023-05-25T21:32:08.263Z,98999.44
2023-05-25T21:34:36.036Z,98995.84
2023-05-25T21:37:03.535Z,99003.78
2023-05-25T21:39:31.037Z,99005.94
2023-05-25T21:41:58.486Z,99006.03
2023-05-25T21:44:25.960Z,99005.03
2023-05-25T21:46:53.542Z,99008.97
2023-05-25T21:49:21.077Z,99013.06
2023-05-25T21:51:48.558Z,99011.78
2023-05-25T21:54:16.505Z,99001.25
2023-05-25T21:56:43.954Z,99005.00
2023-05-25T21:59:11.440Z,99008.81
2023-05-25T22:01:38.929Z,99002.34
2023-05-25T22:04:06.627Z,98997.88
2023-05-25T22:06:34.069Z,98999.00
2023-05-25T22:09:01.500Z,98996.94
2023-05-25T22:11:29.005Z,98999.53
2023-05-25T22:13:56.578Z,99005.59
2023-05-25T22:16:24.087Z,98997.91
2023-05-25T22:18:51.696Z,99004.88
2023-05-25T22:21:19.161Z,99003.47
2023-05-25T22:23:46.632Z,99009.75
2023-05-25T22:26:14.148Z,99018.75
2023-05-25T22:28:41.628Z,99003.09
2023-05-25T22:31:09.595Z,99007.25
2023-05-25T22:33:37.042Z,98999.59
2023-05-25T22:36:04.566Z,99003.69
2023-05-25T22:38:32.056Z,99015.31
2023-05-25T22:40:59.553Z,99004.94
2023-05-25T22:43:27.163Z,99006.06
2023-05-25T22:45:54.667Z,99013.53
2023-05-25T22:48:22.273Z,99009.03
2023-05-25T22:50:49.737Z,99006.56
2023-05-25T22:53:17.316Z,99019.13
2023-05-25T22:55:47.396Z,99009.19
2023-05-25T22:58:15.055Z,99022.66
2023-05-25T23:00:42.489Z,99022.97
2023-05-25T23:03:10.039Z,99020.38
2023-05-25T23:05:37.628Z,99009.88
2023-05-25T23:08:05.126Z,99012.78
2023-05-25T23:10:32.640Z,99017.19
2023-05-25T23:13:00.114Z,99014.47
2023-05-25T23:15:28.641Z,99010.59
2023-05-25T23:17:56.220Z,99004.41
2023-05-25T23:20:23.829Z,99002.00
2023-05-25T23:22:51.339Z,99007.09
2023-05-25T23:25:18.833Z,98997.84
2023-05-25T23:27:46.267Z,99004.84
2023-05-25T23:30:13.787Z,99000.16
2023-05-25T23:32:41.265Z,98989.88
2023-05-25T23:35:09.582Z,98997.19
2023-05-25T23:37:37.631Z,98991.69
2023-05-25T23:40:05.757Z,99001.38
2023-05-25T23:42:40.713Z,98979.94
2023-05-25T23:45:09.487Z,98987.91
2023-05-25T23:47:37.005Z,98987.53
2023-05-25T23:50:05.485Z,98997.44
2023-05-25T23:52:33.043Z,98995.78
2023-05-25T23:55:00.531Z,99002.88
2023-05-25T23:57:28.003Z,99011.28
2023-05-25T23:59:55.944Z,99003.88
